Time;durP1;ratioP1;P1;durP2;ratioP2;P2;SDS_P1;SDS_P2;PMS_P1;PMS_P2;Temp;Humidity;BMP_temperature;BMP_pressure;BME280_temperature;BME280_humidity;BME280_pressure;Samples;Min_cycle;Max_cycle;Signal;HPM_P1;HPM_P2
2023/05/12 00:01:05;;;;;;;24.95;16.83;;;16.10;66.60;;;;;;5003089;28;20057;-41
2023/05/12 00:03:32;;;;;;;24.20;17.13;;;16.20;66.70;;;;;;5005746;28;20084;-46
2023/05/12 00:06:02;;;;;;;21.27;16.00;;;16.20;66.60;;;;;;5006640;28;20058;-42
2023/05/12 00:08:30;;;;;;;22.42;15.57;;;16.10;66.30;;;;;;5003476;28;20068;-44
2023/05/12 00:10:58;;;;;;;22.75;15.57;;;16.20;66.40;;;;;;5003775;28;20045;-39
2023/05/12 00:13:26;;;;;;;18.60;13.88;;;16.20;66.20;;;;;;5004214;28;20049;-45
2023/05/12 00:15:55;;;;;;;20.08;14.68;;;16.20;66.10;;;;;;5001551;28;20064;-44
2023/05/12 00:18:22;;;;;;;20.15;14.13;;;16.20;66.10;;;;;;5004114;28;20057;-40
2023/05/12 00:20:49;;;;;;;18.20;13.23;;;16.20;66.00;;;;;;5005684;28;20053;-38
2023/05/12 00:23:17;;;;;;;16.52;12.75;;;16.20;65.90;;;;;;5004517;28;20501;-43
2023/05/12 00:25:46;;;;;;;17.75;12.73;;;16.20;65.90;;;;;;5004271;28;20065;-44
2023/05/12 00:28:13;;;;;;;18.15;13.40;;;16.10;65.80;;;;;;5004626;28;20061;-41
2023/05/12 00:30:40;;;;;;;18.75;14.02;;;16.20;65.90;;;;;;5003810;28;20482;-39
2023/05/12 00:33:07;;;;;;;16.33;12.73;;;16.10;65.90;;;;;;5004466;28;20587;-39
2023/05/12 00:35:35;;;;;;;17.23;13.32;;;16.10;65.90;;;;;;5003910;28;20049;-40
2023/05/12 00:38:02;;;;;;;16.90;12.52;;;16.10;65.90;;;;;;5003320;28;20528;-42
2023/05/12 00:40:29;;;;;;;16.17;12.38;;;16.10;65.90;;;;;;5004082;28;20057;-38
2023/05/12 00:42:58;;;;;;;17.80;11.85;;;16.10;65.90;;;;;;5002311;28;20053;-42
2023/05/12 00:45:25;;;;;;;15.43;10.98;;;16.10;65.90;;;;;;5001418;28;20068;-41
2023/05/12 00:47:53;;;;;;;14.73;11.05;;;16.10;65.80;;;;;;5003505;28;20079;-39
2023/05/12 00:50:21;;;;;;;19.35;12.70;;;16.10;66.50;;;;;;5001932;28;20058;-44
2023/05/12 00:52:48;;;;;;;21.40;14.75;;;16.10;65.80;;;;;;5003885;28;20058;-43
2023/05/12 00:55:16;;;;;;;19.10;13.75;;;16.10;65.80;;;;;;5003704;28;20390;-42
2023/05/12 00:57:44;;;;;;;20.77;14.35;;;16.00;65.80;;;;;;5003921;28;20054;-42
2023/05/12 01:00:16;;;;;;;23.55;15.48;;;16.00;65.90;;;;;;5003363;28;20065;-40
2023/05/12 01:02:44;;;;;;;20.17;14.55;;;16.00;66.00;;;;;;4999840;28;20064;-42
2023/05/12 01:05:12;;;;;;;23.30;16.63;;;16.00;66.00;;;;;;5059118;23;20048;-46
2023/05/12 01:07:40;;;;;;;22.02;15.55;;;16.00;66.00;;;;;;5052068;28;20052;-46
2023/05/12 01:10:18;;;;;;;29.58;18.25;;;16.00;66.10;;;;;;5054067;28;20417;-41
2023/05/12 01:12:45;;;;;;;26.90;17.95;;;16.00;66.20;;;;;;5049112;28;20057;-48
2023/05/12 01:15:13;;;;;;;24.90;17.45;;;16.00;66.20;;;;;;5048824;28;20044;-47
2023/05/12 01:17:47;;;;;;;27.58;18.60;;;16.00;66.20;;;;;;5052301;28;20059;-44
2023/05/12 01:20:18;;;;;;;25.15;17.85;;;15.90;66.50;;;;;;5052088;28;20483;-44
2023/05/12 01:22:47;;;;;;;21.98;15.77;;;15.90;66.50;;;;;;5055504;28;20056;-43
2023/05/12 01:25:15;;;;;;;24.30;16.80;;;15.90;66.60;;;;;;5057411;28;20044;-42
2023/05/12 01:27:46;;;;;;;26.10;17.25;;;15.90;66.70;;;;;;5053402;28;20048;-46
2023/05/12 01:30:18;;;;;;;27.98;18.30;;;15.90;66.90;;;;;;5043588;28;20079;-47
2023/05/12 01:32:45;;;;;;;26.35;19.13;;;15.90;67.00;;;;;;5050419;28;20419;-47
2023/05/12 01:35:13;;;;;;;26.38;17.83;;;15.90;67.10;;;;;;5052440;28;20040;-49
2023/05/12 01:37:40;;;;;;;28.75;18.50;;;15.90;67.10;;;;;;5050282;28;20258;-48
2023/05/12 01:40:08;;;;;;;26.55;18.88;;;15.90;67.10;;;;;;5052340;28;20057;-49
2023/05/12 01:42:35;;;;;;;23.55;16.52;;;15.80;67.20;;;;;;5054784;28;20060;-46
2023/05/12 01:45:04;;;;;;;23.52;17.40;;;15.80;67.20;;;;;;5055392;28;20395;-48
2023/05/12 01:47:32;;;;;;;21.80;16.48;;;15.80;67.30;;;;;;5052888;28;20754;-44
2023/05/12 01:49:59;;;;;;;24.63;17.75;;;15.80;67.40;;;;;;5052028;28;20060;-47
2023/05/12 01:52:26;;;;;;;26.38;17.27;;;15.80;67.40;;;;;;5049490;28;20061;-49
2023/05/12 01:54:54;;;;;;;24.17;16.63;;;15.80;67.50;;;;;;5047450;28;20053;-44
2023/05/12 01:57:21;;;;;;;24.58;16.92;;;15.80;67.60;;;;;;5051772;28;20072;-41
2023/05/12 01:59:48;;;;;;;22.58;16.17;;;15.80;67.60;;;;;;5050570;28;20059;-44
2023/05/12 02:02:17;;;;;;;25.15;17.40;;;15.80;67.60;;;;;;5050937;28;20048;-49
2023/05/12 02:04:44;;;;;;;21.92;16.10;;;15.80;67.70;;;;;;5054591;28;20048;-41
2023/05/12 02:07:11;;;;;;;21.05;15.35;;;15.80;67.70;;;;;;5052121;28;20511;-44
2023/05/12 02:09:38;;;;;;;23.13;16.27;;;15.80;67.80;;;;;;5054997;28;20083;-41
2023/05/12 02:12:06;;;;;;;22.17;16.85;;;15.80;67.80;;;;;;5047111;28;20064;-45
2023/05/12 02:14:34;;;;;;;24.58;16.27;;;15.80;67.70;;;;;;5050591;28;20051;-43
2023/05/12 02:17:02;;;;;;;24.27;16.17;;;15.80;67.70;;;;;;5050612;28;20056;-44
2023/05/12 02:19:30;;;;;;;25.10;16.08;;;15.80;67.70;;;;;;5053117;28;20061;-41
2023/05/12 02:21:58;;;;;;;24.15;15.77;;;15.80;67.60;;;;;;5055655;28;20053;-47
2023/05/12 02:24:25;;;;;;;28.67;17.33;;;15.70;67.50;;;;;;5060471;28;20048;-43
2023/05/12 02:26:52;;;;;;;26.42;17.08;;;15.70;67.70;;;;;;5058747;28;20056;-48
2023/05/12 02:29:20;;;;;;;29.42;17.50;;;15.70;67.80;;;;;;5056301;28;20064;-48
2023/05/12 02:31:47;;;;;;;26.80;16.92;;;15.70;68.10;;;;;;5062118;28;20057;-45
2023/05/12 02:34:14;;;;;;;23.95;16.52;;;15.60;68.20;;;;;;5062216;28;20049;-49
2023/05/12 02:36:43;;;;;;;26.13;16.33;;;15.60;68.30;;;;;;5060620;28;20063;-47
2023/05/12 02:39:10;;;;;;;22.63;14.75;;;15.60;68.50;;;;;;5056796;28;20048;-45
2023/05/12 02:41:37;;;;;;;21.30;14.38;;;15.60;68.60;;;;;;5059679;28;20048;-36
2023/05/12 02:44:05;;;;;;;19.17;13.02;;;15.60;68.70;;;;;;5056545;28;20056;-44
2023/05/12 02:46:33;;;;;;;18.65;13.07;;;15.60;68.80;;;;;;5059363;28;20052;-47
2023/05/12 02:49:00;;;;;;;15.68;11.38;;;15.60;68.90;;;;;;5055209;28;20408;-51
2023/05/12 02:51:27;;;;;;;17.52;12.48;;;15.60;69.00;;;;;;5059224;28;20380;-47
2023/05/12 02:53:56;;;;;;;22.42;14.40;;;15.70;69.10;;;;;;5059860;28;20060;-41
2023/05/12 02:56:23;;;;;;;15.55;11.48;;;15.70;69.20;;;;;;5059553;28;20063;-41
2023/05/12 02:58:50;;;;;;;15.00;9.77;;;15.70;69.00;;;;;;5061617;28;20048;-42
2023/05/12 03:01:17;;;;;;;9.00;6.78;;;15.70;69.00;;;;;;5055062;28;20060;-43
2023/05/12 03:03:44;;;;;;;6.68;4.85;;;15.70;69.00;;;;;;5055411;28;20056;-45
2023/05/12 03:06:12;;;;;;;8.38;6.40;;;15.80;69.10;;;;;;5053307;28;20407;-41
2023/05/12 03:08:39;;;;;;;10.15;7.32;;;15.80;69.00;;;;;;5056044;28;20052;-46
2023/05/12 03:11:08;;;;;;;8.95;6.57;;;15.80;68.90;;;;;;5056774;28;20411;-42
2023/05/12 03:13:35;;;;;;;6.47;5.10;;;15.80;68.80;;;;;;5056036;28;20052;-48
2023/05/12 03:16:02;;;;;;;5.93;4.70;;;15.90;68.70;;;;;;5048239;28;20075;-42
2023/05/12 03:18:29;;;;;;;7.22;4.88;;;15.90;68.50;;;;;;5052301;28;20479;-44
2023/05/12 03:20:56;;;;;;;2.35;2.03;;;15.90;68.40;;;;;;5054392;28;20767;-44
2023/05/12 03:23:24;;;;;;;2.72;1.30;;;16.00;68.30;;;;;;5052733;28;20063;-50
2023/05/12 03:25:51;;;;;;;2.47;1.30;;;16.00;68.20;;;;;;5051840;28;20522;-41
2023/05/12 03:28:21;;;;;;;0.95;0.85;;;16.00;68.00;;;;;;5054113;28;20052;-41
2023/05/12 03:30:49;;;;;;;1.02;0.90;;;16.10;68.00;;;;;;5049693;28;20052;-42
2023/05/12 03:33:16;;;;;;;1.10;1.00;;;16.10;68.20;;;;;;5054711;28;20484;-45
2023/05/12 03:35:43;;;;;;;1.27;1.08;;;16.10;67.80;;;;;;5053202;28;20068;-41
2023/05/12 03:38:11;;;;;;;0.98;0.88;;;16.10;67.70;;;;;;5053479;28;20056;-43
2023/05/12 03:40:38;;;;;;;2.35;1.27;;;16.10;67.60;;;;;;5049569;28;20056;-42
2023/05/12 03:43:05;;;;;;;1.23;1.00;;;16.10;67.60;;;;;;5055387;28;20060;-41
2023/05/12 03:45:33;;;;;;;1.25;1.08;;;16.20;67.50;;;;;;5053714;28;20408;-42
2023/05/12 03:48:01;;;;;;;1.30;1.10;;;16.20;67.50;;;;;;5053357;28;20065;-50
2023/05/12 03:50:28;;;;;;;2.90;1.30;;;16.20;67.40;;;;;;5053474;28;20625;-49
2023/05/12 03:52:55;;;;;;;1.95;1.58;;;16.20;67.30;;;;;;5053223;28;20055;-44
2023/05/12 03:55:22;;;;;;;2.45;1.40;;;16.30;67.30;;;;;;5048546;28;20060;-46
2023/05/12 03:57:50;;;;;;;3.40;1.70;;;16.30;67.30;;;;;;5053995;28;20049;-42
2023/05/12 04:00:18;;;;;;;1.65;1.40;;;16.30;67.10;;;;;;5052638;28;20522;-45
2023/05/12 04:02:47;;;;;;;1.98;1.42;;;16.30;67.00;;;;;;5053055;28;20044;-43
2023/05/12 04:05:15;;;;;;;1.60;1.30;;;16.30;66.90;;;;;;5048911;28;20052;-41
2023/05/12 04:07:42;;;;;;;1.73;1.52;;;16.30;66.70;;;;;;5052113;28;20055;-48
2023/05/12 04:10:09;;;;;;;1.60;1.50;;;16.30;66.50;;;;;;5047132;28;20044;-42
2023/05/12 04:12:36;;;;;;;1.67;1.23;;;16.30;66.40;;;;;;5048618;28;20053;-41
2023/05/12 04:15:04;;;;;;;1.23;0.90;;;16.30;66.20;;;;;;5050802;28;20507;-41
2023/05/12 04:17:32;;;;;;;2.22;1.40;;;16.30;66.10;;;;;;5040770;28;20403;-41
2023/05/12 04:20:00;;;;;;;45.58;18.13;;;16.30;66.60;;;;;;5054741;28;20059;-48
2023/05/12 04:22:27;;;;;;;17.52;9.70;;;16.30;65.70;;;;;;5052100;28;20512;-45
2023/05/12 04:24:55;;;;;;;6.80;3.03;;;16.30;65.50;;;;;;5048656;28;20045;-51
2023/05/12 04:27:22;;;;;;;3.80;1.83;;;16.30;65.40;;;;;;5059588;28;20492;-39
2023/05/12 04:29:49;;;;;;;1.77;1.30;;;16.30;65.20;;;;;;5060904;28;20049;-40
2023/05/12 04:32:17;;;;;;;1.30;1.10;;;16.20;65.00;;;;;;5060730;28;20048;-40
2023/05/12 04:34:44;;;;;;;1.67;1.25;;;16.20;65.00;;;;;;5054986;28;20048;-40
2023/05/12 04:37:12;;;;;;;1.83;1.38;;;16.20;65.00;;;;;;5052836;28;20052;-45
2023/05/12 04:39:40;;;;;;;2.10;1.42;;;16.20;65.00;;;;;;5052559;28;20410;-48
2023/05/12 04:42:07;;;;;;;27.85;15.10;;;16.20;64.90;;;;;;5053675;28;21005;-47
2023/05/12 04:44:34;;;;;;;9.82;5.50;;;16.20;64.80;;;;;;5049320;28;20049;-45
2023/05/12 04:47:01;;;;;;;3.65;2.58;;;16.10;64.70;;;;;;5052617;28;20075;-49
2023/05/12 04:49:29;;;;;;;3.42;2.30;;;16.20;64.70;;;;;;5048724;28;20052;-44
2023/05/12 04:51:56;;;;;;;3.47;2.30;;;16.20;64.70;;;;;;5056573;28;20063;-46
2023/05/12 04:54:24;;;;;;;8.00;1.92;;;16.10;64.50;;;;;;5048788;28;20048;-48
2023/05/12 04:56:52;;;;;;;2.72;1.80;;;16.10;64.40;;;;;;5052382;28;20060;-39
2023/05/12 04:59:19;;;;;;;2.13;1.80;;;16.10;64.40;;;;;;5055970;28;20048;-42
2023/05/12 05:01:46;;;;;;;2.70;2.10;;;16.10;64.50;;;;;;5057225;28;20506;-50
2023/05/12 05:04:13;;;;;;;2.15;1.65;;;16.10;64.50;;;;;;5046674;28;20391;-46
2023/05/12 05:06:41;;;;;;;2.95;1.63;;;16.10;64.40;;;;;;5052509;28;20058;-47
2023/05/12 05:09:08;;;;;;;1.65;1.50;;;16.10;64.50;;;;;;5049481;28;20399;-45
2023/05/12 05:11:37;;;;;;;5.43;1.80;;;16.10;64.40;;;;;;5053043;28;20052;-44
2023/05/12 05:14:04;;;;;;;2.10;1.60;;;16.10;64.40;;;;;;5048661;28;20052;-40
2023/05/12 05:16:31;;;;;;;2.78;1.88;;;16.10;64.40;;;;;;5057010;28;20056;-43
2023/05/12 05:18:58;;;;;;;3.92;1.48;;;16.10;64.40;;;;;;5051083;28;20055;-49
2023/05/12 05:21:26;;;;;;;2.75;2.15;;;16.10;64.30;;;;;;5052808;28;20048;-44
2023/05/12 05:23:53;;;;;;;2.80;1.77;;;16.10;64.30;;;;;;5051107;28;20500;-47
2023/05/12 05:26:20;;;;;;;3.35;2.10;;;16.10;64.20;;;;;;5053332;28;20411;-46
2023/05/12 05:28:49;;;;;;;5.15;1.73;;;16.10;64.20;;;;;;5048383;28;20411;-46
2023/05/12 05:31:16;;;;;;;6.25;1.63;;;16.00;64.10;;;;;;5047190;28;20514;-43
2023/05/12 05:33:44;;;;;;;2.17;1.80;;;16.10;64.20;;;;;;5057146;28;20056;-45
2023/05/12 05:36:12;;;;;;;2.08;1.85;;;16.10;64.20;;;;;;5048298;28;20519;-40
2023/05/12 05:38:39;;;;;;;1.80;1.50;;;16.00;64.20;;;;;;5050260;28;20056;-41
2023/05/12 05:41:07;;;;;;;2.40;1.70;;;16.00;64.20;;;;;;5054433;28;20056;-46
2023/05/12 05:43:34;;;;;;;2.80;1.50;;;16.00;64.20;;;;;;5051185;28;20056;-44
2023/05/12 05:46:03;;;;;;;3.13;2.00;;;16.10;64.40;;;;;;5056208;28;20060;-44
2023/05/12 05:48:30;;;;;;;2.15;1.40;;;16.10;64.30;;;;;;5044434;28;20052;-40
2023/05/12 05:50:57;;;;;;;2.13;1.60;;;16.10;64.30;;;;;;5053081;28;20063;-42
2023/05/12 05:53:24;;;;;;;1.95;1.67;;;16.10;64.30;;;;;;5052840;28;20050;-43
2023/05/12 05:55:52;;;;;;;2.00;1.77;;;16.10;64.20;;;;;;5056029;28;20060;-41
2023/05/12 05:58:19;;;;;;;4.45;1.70;;;16.10;64.20;;;;;;5051967;28;20051;-41
2023/05/12 06:00:46;;;;;;;3.35;1.83;;;16.10;64.20;;;;;;5053579;28;20555;-42
2023/05/12 06:03:15;;;;;;;1.45;1.30;;;16.10;64.30;;;;;;5054761;28;20053;-44
2023/05/12 06:05:42;;;;;;;0.88;0.80;;;16.20;64.40;;;;;;5058489;28;20060;-46
2023/05/12 06:08:12;;;;;;;2.30;1.30;;;16.10;64.50;;;;;;5064868;28;20056;-50
2023/05/12 06:10:39;;;;;;;1.40;1.00;;;16.20;64.70;;;;;;5054556;28;20056;-47
2023/05/12 06:13:07;;;;;;;0.70;0.63;;;16.20;65.00;;;;;;5049986;28;20056;-44
2023/05/12 06:15:34;;;;;;;1.00;0.95;;;16.20;65.20;;;;;;5054380;28;20056;-42
2023/05/12 06:18:01;;;;;;;1.45;0.90;;;16.30;65.40;;;;;;5053204;28;20048;-43
2023/05/12 06:20:31;;;;;;;0.95;0.80;;;16.30;65.20;;;;;;5053011;28;20496;-44
2023/05/12 06:22:58;;;;;;;1.00;0.90;;;16.40;65.10;;;;;;5057467;28;20063;-46
2023/05/12 06:25:26;;;;;;;0.80;0.70;;;16.40;64.90;;;;;;5049566;28;20053;-47
2023/05/12 06:27:53;;;;;;;0.95;0.75;;;16.50;64.70;;;;;;5055351;28;20053;-48
2023/05/12 06:30:20;;;;;;;1.17;0.70;;;16.50;64.60;;;;;;5048908;28;20068;-42
2023/05/12 06:32:47;;;;;;;1.00;0.80;;;16.50;64.40;;;;;;5052159;28;20193;-41
2023/05/12 06:35:15;;;;;;;1.05;0.98;;;16.60;64.30;;;;;;5057181;28;20049;-41
2023/05/12 06:37:48;;;;;;;3.55;1.20;;;16.60;64.20;;;;;;5051921;28;20048;-46
2023/05/12 06:40:15;;;;;;;2.97;1.00;;;16.70;64.10;;;;;;5052943;28;20056;-42
2023/05/12 06:42:43;;;;;;;1.80;1.20;;;16.70;64.10;;;;;;5055153;28;20048;-45
2023/05/12 06:45:11;;;;;;;46.75;19.38;;;16.70;63.90;;;;;;5052391;28;21400;-42
2023/05/12 06:47:39;;;;;;;12.25;6.70;;;16.80;63.90;;;;;;5049883;28;20056;-45
2023/05/12 06:50:08;;;;;;;6.03;3.10;;;16.80;64.00;;;;;;5055700;28;20060;-41
2023/05/12 06:52:36;;;;;;;5.63;2.50;;;16.90;63.90;;;;;;5054079;28;20057;-48
2023/05/12 06:55:05;;;;;;;2.55;1.95;;;16.90;63.60;;;;;;5053182;28;20056;-45
2023/05/12 06:57:33;;;;;;;5.60;2.10;;;17.00;63.40;;;;;;5053593;28;20048;-48
2023/05/12 07:00:01;;;;;;;7.82;4.05;;;17.00;63.50;;;;;;5053462;28;20063;-45
2023/05/12 07:02:29;;;;;;;2.92;2.35;;;17.00;63.40;;;;;;5050971;28;20048;-47
2023/05/12 07:04:57;;;;;;;2.70;2.13;;;17.10;63.40;;;;;;5051294;28;20070;-44
2023/05/12 07:07:24;;;;;;;6.95;3.08;;;17.10;63.30;;;;;;5046995;28;20049;-46
2023/05/12 07:09:51;;;;;;;2.90;2.33;;;17.20;63.30;;;;;;5049957;28;20056;-48
2023/05/12 07:12:20;;;;;;;3.58;2.70;;;17.20;63.30;;;;;;5058423;28;20127;-46
2023/05/12 07:14:47;;;;;;;2.40;2.10;;;17.30;63.20;;;;;;5054038;28;20510;-45
2023/05/12 07:17:14;;;;;;;3.88;3.00;;;17.40;63.20;;;;;;5054450;28;20052;-42
2023/05/12 07:19:42;;;;;;;3.38;2.47;;;17.40;62.70;;;;;;5052316;28;20547;-50
2023/05/12 07:22:09;;;;;;;5.28;2.20;;;17.40;62.10;;;;;;5054703;28;20063;-46
2023/05/12 07:24:37;;;;;;;2.58;2.30;;;17.40;61.70;;;;;;5056976;28;20052;-48
2023/05/12 07:27:05;;;;;;;2.63;2.13;;;17.50;61.50;;;;;;5058146;28;20049;-45
2023/05/12 07:29:34;;;;;;;5.82;2.17;;;17.50;61.10;;;;;;5053906;28;20068;-47
2023/05/12 07:32:01;;;;;;;2.63;1.85;;;17.60;60.60;;;;;;5060660;28;20120;-50
2023/05/12 07:34:28;;;;;;;3.53;1.77;;;17.60;60.60;;;;;;5050072;28;20417;-52
2023/05/12 07:36:56;;;;;;;2.30;2.03;;;17.60;60.40;;;;;;5046263;28;20048;-48
2023/05/12 07:39:23;;;;;;;2.30;1.75;;;17.70;60.40;;;;;;5055688;28;20048;-49
2023/05/12 07:41:52;;;;;;;1.90;1.70;;;17.70;60.50;;;;;;5058898;28;20057;-50
2023/05/12 07:44:20;;;;;;;1.92;1.75;;;17.80;60.10;;;;;;5051750;28;20059;-45
2023/05/12 07:46:48;;;;;;;2.25;1.80;;;17.80;59.90;;;;;;5050943;28;20047;-48
2023/05/12 07:49:16;;;;;;;6.85;2.08;;;17.80;59.70;;;;;;5050908;28;20508;-46
2023/05/12 07:51:44;;;;;;;1.88;1.65;;;17.90;59.60;;;;;;5051853;28;20062;-52
2023/05/12 07:54:12;;;;;;;1.58;1.48;;;17.90;59.60;;;;;;5047334;28;20052;-51
2023/05/12 07:56:39;;;;;;;2.47;1.50;;;18.00;59.50;;;;;;5050318;28;20052;-50
2023/05/12 07:59:07;;;;;;;2.45;2.05;;;18.00;59.50;;;;;;5050181;28;20488;-47
2023/05/12 08:01:34;;;;;;;1.88;1.48;;;18.10;59.30;;;;;;5046109;28;20462;-49
2023/05/12 08:04:03;;;;;;;2.15;1.35;;;18.10;59.20;;;;;;5052531;28;20053;-46
2023/05/12 08:06:30;;;;;;;3.83;1.50;;;18.10;59.10;;;;;;5049556;28;20049;-50
2023/05/12 08:09:01;;;;;;;2.30;1.50;;;18.10;58.90;;;;;;5045851;28;20056;-52
2023/05/12 08:11:32;;;;;;;3.10;1.45;;;18.10;58.90;;;;;;5044025;28;20052;-48
2023/05/12 08:14:07;;;;;;;1.50;1.40;;;18.20;58.70;;;;;;5044556;28;20084;-48
2023/05/12 08:16:46;;;;;;;2.90;1.83;;;18.20;58.30;;;;;;5036972;28;20064;-48
2023/05/12 08:19:16;;;;;;;2.70;1.70;;;18.30;58.20;;;;;;5038259;28;20079;-43
2023/05/12 08:21:45;;;;;;;8.30;2.60;;;18.30;57.70;;;;;;5043492;28;20052;-50
2023/05/12 08:24:13;;;;;;;2.05;1.60;;;18.30;57.50;;;;;;5047542;28;20052;-41
2023/05/12 08:27:08;;;;;;;2.42;1.45;;;18.30;57.50;;;;;;5045316;28;20048;-41
2023/05/12 08:29:37;;;;;;;1.95;1.40;;;18.30;57.30;;;;;;5041980;28;20052;-46
2023/05/12 08:32:07;;;;;;;1.70;1.60;;;18.30;57.50;;;;;;5046675;28;20061;-42
2023/05/12 08:34:42;;;;;;;5.68;1.58;;;18.40;57.20;;;;;;5043781;28;20500;-46
2023/05/12 08:37:11;;;;;;;2.47;1.50;;;18.40;57.10;;;;;;5043874;28;20053;-43
2023/05/12 08:39:41;;;;;;;2.30;1.55;;;18.40;57.30;;;;;;5042303;28;20063;-46
2023/05/12 08:42:20;;;;;;;3.28;1.35;;;18.50;57.10;;;;;;5045894;28;20044;-43
2023/05/12 08:44:53;;;;;;;3.38;1.38;;;18.50;56.90;;;;;;5044788;28;20052;-46
2023/05/12 08:47:32;;;;;;;3.10;1.73;;;18.50;56.80;;;;;;5046241;28;20052;-45
2023/05/12 08:50:09;;;;;;;1.48;1.38;;;18.50;56.50;;;;;;5046470;28;20048;-52
2023/05/12 08:52:43;;;;;;;1.67;1.50;;;18.60;56.50;;;;;;5042677;28;20056;-51
2023/05/12 08:55:16;;;;;;;2.40;1.50;;;18.60;56.60;;;;;;5045163;28;20479;-44
2023/05/12 08:57:55;;;;;;;3.05;1.50;;;18.60;56.80;;;;;;5042815;28;20555;-46
2023/05/12 09:00:33;;;;;;;3.35;1.50;;;18.70;56.90;;;;;;5042721;28;20060;-44
2023/05/12 09:03:02;;;;;;;3.50;1.80;;;18.70;56.70;;;;;;5050142;28;20053;-43
2023/05/12 09:05:31;;;;;;;2.08;1.63;;;18.80;56.50;;;;;;5055856;28;20059;-37
2023/05/12 09:08:00;;;;;;;3.67;2.00;;;18.80;56.30;;;;;;5070785;28;20562;-44
2023/05/12 09:10:28;;;;;;;4.00;2.10;;;18.80;56.30;;;;;;5070310;28;20055;-42
2023/05/12 09:13:00;;;;;;;3.67;2.13;;;18.80;56.40;;;;;;5080499;28;20051;-51
2023/05/12 09:15:33;;;;;;;9.43;2.70;;;18.90;56.40;;;;;;5074093;28;20058;-47
2023/05/12 09:18:01;;;;;;;3.60;1.90;;;18.90;56.00;;;;;;5081498;28;20044;-46
2023/05/12 09:20:28;;;;;;;5.95;2.25;;;19.00;55.80;;;;;;5075212;28;20056;-48
2023/05/12 09:22:57;;;;;;;3.58;2.20;;;19.00;55.70;;;;;;5068997;28;20415;-49
2023/05/12 09:25:24;;;;;;;4.65;2.35;;;19.00;55.50;;;;;;5068088;28;20056;-46
2023/05/12 09:27:56;;;;;;;4.30;2.50;;;19.10;55.50;;;;;;5072638;28;20048;-41
2023/05/12 09:30:30;;;;;;;3.70;2.38;;;19.10;55.50;;;;;;5071102;28;20539;-45
2023/05/12 09:33:06;;;;;;;3.20;2.00;;;19.20;55.50;;;;;;5073436;28;20624;-43
2023/05/12 09:35:39;;;;;;;2.42;1.77;;;19.20;55.50;;;;;;5071352;28;20059;-45
2023/05/12 09:38:08;;;;;;;2.30;2.08;;;19.30;55.70;;;;;;5058045;28;21325;-41
2023/05/12 09:40:36;;;;;;;2.17;1.90;;;19.30;55.70;;;;;;5066724;28;20419;-47
2023/05/12 09:43:05;;;;;;;4.43;2.00;;;19.40;55.50;;;;;;5075270;28;20056;-47
2023/05/12 09:45:35;;;;;;;3.95;2.15;;;19.40;55.40;;;;;;5072184;28;20403;-42
2023/05/12 09:48:10;;;;;;;6.05;2.00;;;19.50;55.20;;;;;;5075200;28;20044;-43
2023/05/12 09:50:45;;;;;;;5.07;2.30;;;19.50;54.60;;;;;;5073143;28;20052;-43
2023/05/12 09:53:16;;;;;;;2.65;2.10;;;19.60;54.30;;;;;;5070566;28;20059;-45
2023/05/12 09:55:43;;;;;;;6.22;2.70;;;19.60;54.30;;;;;;5069570;28;20055;-40
2023/05/12 09:58:11;;;;;;;2.38;1.65;;;19.60;54.30;;;;;;5072385;28;20048;-46
2023/05/12 10:00:39;;;;;;;3.08;2.33;;;19.60;54.20;;;;;;5050517;28;20048;-45
2023/05/12 10:03:11;;;;;;;3.75;1.92;;;19.60;54.00;;;;;;5072258;28;20048;-42
2023/05/12 10:05:45;;;;;;;3.20;2.28;;;19.70;53.70;;;;;;5072782;28;20059;-43
2023/05/12 10:08:20;;;;;;;4.40;2.37;;;19.70;53.70;;;;;;5076255;28;20051;-45
2023/05/12 10:10:49;;;;;;;2.50;1.83;;;19.70;53.40;;;;;;5071465;28;20063;-43
2023/05/12 10:13:16;;;;;;;2.30;2.00;;;19.70;53.60;;;;;;5065406;28;20056;-44
2023/05/12 10:15:45;;;;;;;2.35;2.00;;;19.70;53.30;;;;;;5070513;28;20048;-44
2023/05/12 10:18:13;;;;;;;3.53;2.13;;;19.70;53.30;;;;;;5071448;28;20055;-42
2023/05/12 10:20:42;;;;;;;2.97;1.95;;;19.70;52.90;;;;;;5072808;28;20514;-47
2023/05/12 10:23:12;;;;;;;3.22;1.92;;;19.70;52.80;;;;;;5068430;28;20055;-46
2023/05/12 10:25:42;;;;;;;3.40;2.20;;;19.70;52.80;;;;;;5072154;28;20052;-45
2023/05/12 10:28:10;;;;;;;4.18;2.10;;;19.60;52.60;;;;;;5070050;28;20051;-45
2023/05/12 10:30:38;;;;;;;4.68;1.95;;;19.60;52.30;;;;;;5071939;28;20056;-43
2023/05/12 10:33:07;;;;;;;3.05;1.90;;;19.60;52.30;;;;;;5074456;28;20048;-49
2023/05/12 10:35:36;;;;;;;3.20;2.05;;;19.60;52.00;;;;;;5071724;28;20404;-40
2023/05/12 10:38:06;;;;;;;4.60;2.33;;;19.60;52.70;;;;;;5070753;28;20488;-44
2023/05/12 10:40:34;;;;;;;2.85;2.00;;;19.60;52.40;;;;;;5064843;28;20083;-46
2023/05/12 10:43:03;;;;;;;7.47;1.85;;;19.60;52.50;;;;;;5075221;28;20055;-42
2023/05/12 10:45:36;;;;;;;3.63;2.10;;;19.70;52.30;;;;;;5075555;28;20063;-44
2023/05/12 10:48:07;;;;;;;5.47;2.60;;;19.80;52.10;;;;;;5075844;28;20054;-43
2023/05/12 10:50:35;;;;;;;2.35;2.00;;;19.90;52.30;;;;;;5074206;28;20434;-45
2023/05/12 10:53:02;;;;;;;3.47;2.17;;;19.90;52.40;;;;;;5070847;28;20063;-44
2023/05/12 10:55:34;;;;;;;2.55;1.92;;;20.00;52.10;;;;;;5080051;28;20407;-43
2023/05/12 10:58:08;;;;;;;5.13;2.40;;;20.00;52.00;;;;;;5076460;28;20044;-47
2023/05/12 11:00:44;;;;;;;2.33;1.95;;;20.20;52.10;;;;;;5071173;28;20058;-46
2023/05/12 11:03:13;;;;;;;3.63;2.00;;;20.20;51.30;;;;;;5073502;28;20048;-48
2023/05/12 11:05:40;;;;;;;3.40;1.90;;;20.30;51.50;;;;;;5073673;28;20491;-42
2023/05/12 11:08:07;;;;;;;3.50;1.80;;;20.40;51.50;;;;;;5074974;28;20048;-43
2023/05/12 11:10:35;;;;;;;6.22;2.15;;;20.50;51.00;;;;;;5064714;28;20404;-46
2023/05/12 11:13:03;;;;;;;3.50;1.85;;;20.50;50.80;;;;;;5075664;28;20053;-48
2023/05/12 11:15:32;;;;;;;4.25;2.05;;;20.60;50.60;;;;;;5067016;28;20054;-42
2023/05/12 11:18:02;;;;;;;3.15;1.95;;;20.60;50.70;;;;;;5081440;28;20048;-45
2023/05/12 11:20:29;;;;;;;3.30;2.03;;;20.70;51.00;;;;;;5081545;28;20057;-45
2023/05/12 11:22:57;;;;;;;4.47;2.05;;;20.70;50.70;;;;;;5069982;28;20047;-44
2023/05/12 11:25:26;;;;;;;2.92;2.13;;;20.80;50.60;;;;;;5078695;28;20496;-44
2023/05/12 11:27:54;;;;;;;4.65;1.80;;;20.90;50.50;;;;;;5081460;28;20056;-45
2023/05/12 11:30:22;;;;;;;3.85;2.05;;;20.90;50.40;;;;;;5080641;28;20064;-44
2023/05/12 11:33:00;;;;;;;5.10;2.70;;;21.00;50.10;;;;;;5071136;28;20071;-44
2023/05/12 11:35:30;;;;;;;2.58;2.10;;;21.00;49.50;;;;;;5075107;28;20082;-42
2023/05/12 11:37:58;;;;;;;2.10;1.83;;;21.10;49.50;;;;;;5078734;28;20051;-42
2023/05/12 11:40:25;;;;;;;4.78;2.83;;;21.20;49.70;;;;;;5081149;28;20052;-45
2023/05/12 11:42:54;;;;;;;3.47;2.25;;;21.20;49.50;;;;;;5073082;28;20052;-46
2023/05/12 11:45:27;;;;;;;4.10;2.20;;;21.20;49.40;;;;;;5068583;28;20048;-44
2023/05/12 11:48:07;;;;;;;4.00;1.85;;;21.20;49.50;;;;;;5075838;28;20153;-42
2023/05/12 11:50:37;;;;;;;2.30;1.90;;;21.30;49.40;;;;;;5078603;28;20520;-49
2023/05/12 11:53:05;;;;;;;3.00;2.08;;;21.40;49.50;;;;;;5078423;28;20409;-44
2023/05/12 11:55:32;;;;;;;2.33;1.90;;;21.40;50.20;;;;;;5082133;28;20063;-49
2023/05/12 11:58:02;;;;;;;5.57;2.65;;;21.40;49.70;;;;;;5081670;28;20055;-45
2023/05/12 12:00:32;;;;;;;4.47;2.28;;;21.50;49.80;;;;;;5077636;28;20590;-46
2023/05/12 12:03:13;;;;;;;3.38;2.50;;;21.50;49.70;;;;;;5079458;28;20067;-43
2023/05/12 12:05:43;;;;;;;2.80;1.70;;;21.60;49.30;;;;;;5079544;28;20060;-47
2023/05/12 12:08:13;;;;;;;2.72;2.35;;;21.60;49.40;;;;;;5076170;28;20381;-41
2023/05/12 12:10:43;;;;;;;3.08;2.22;;;21.70;49.30;;;;;;5081736;28;20056;-41
2023/05/12 12:13:10;;;;;;;2.38;2.10;;;21.70;49.20;;;;;;5071076;28;20053;-45
2023/05/12 12:15:38;;;;;;;3.88;1.90;;;21.60;49.10;;;;;;5081659;28;20059;-42
2023/05/12 12:18:05;;;;;;;3.45;2.50;;;21.70;49.00;;;;;;5075370;28;20052;-41
2023/05/12 12:20:34;;;;;;;3.78;2.22;;;21.70;48.90;;;;;;5081830;28;20055;-42
2023/05/12 12:23:01;;;;;;;2.83;2.50;;;21.70;48.80;;;;;;5078089;28;20055;-42
2023/05/12 12:25:28;;;;;;;2.45;2.00;;;21.70;48.90;;;;;;5081393;28;20483;-46
2023/05/12 12:27:56;;;;;;;2.55;2.00;;;21.70;48.80;;;;;;5079342;28;20056;-44
2023/05/12 12:30:23;;;;;;;5.47;2.03;;;21.70;48.80;;;;;;5076755;28;20059;-47
2023/05/12 12:32:50;;;;;;;4.22;2.28;;;21.70;48.80;;;;;;5079055;28;20056;-48
2023/05/12 12:35:17;;;;;;;2.20;1.98;;;21.70;48.80;;;;;;5081134;28;20064;-45
2023/05/12 12:37:50;;;;;;;4.85;2.20;;;21.70;48.80;;;;;;5075765;28;20066;-48
2023/05/12 12:40:18;;;;;;;2.47;2.20;;;21.70;48.80;;;;;;5078599;28;20463;-48
2023/05/12 12:42:45;;;;;;;4.97;2.10;;;21.70;48.90;;;;;;5080603;28;20420;-44
2023/05/12 12:45:13;;;;;;;2.85;2.10;;;21.70;48.90;;;;;;5071719;28;20060;-42
2023/05/12 12:47:40;;;;;;;3.50;2.00;;;21.80;49.10;;;;;;5080361;28;20060;-43
2023/05/12 12:50:09;;;;;;;3.03;2.00;;;21.80;49.30;;;;;;5080594;28;20051;-43